createdAt,value
2024-02-01T00:00:02.329Z,46.21
2024-02-01T00:02:29.198Z,44.95
2024-02-01T00:04:55.994Z,43.27
2024-02-01T00:07:22.733Z,44.91
2024-02-01T00:09:49.815Z,43.69
2024-02-01T00:12:16.733Z,44.97
2024-02-01T00:14:44.404Z,45.34
2024-02-01T00:17:11.225Z,46.13
2024-02-01T00:19:38.020Z,45.46
2024-02-01T00:22:05.103Z,45.74
2024-02-01T00:24:32.822Z,44.48
2024-02-01T00:26:59.653Z,44.12
2024-02-01T00:29:26.900Z,44.29
2024-02-01T00:31:53.574Z,43.36
2024-02-01T00:34:20.485Z,44.68
2024-02-01T00:36:47.294Z,46.19
2024-02-01T00:39:14.263Z,44.92
2024-02-01T00:41:41.141Z,46.23
2024-02-01T00:44:08.212Z,44.74
2024-02-01T00:46:34.940Z,45.25
2024-02-01T00:49:01.961Z,44.62
2024-02-01T00:51:28.772Z,46.15
2024-02-01T00:53:55.577Z,47.65
2024-02-01T00:56:22.324Z,45.19
2024-02-01T00:58:49.059Z,46.09
2024-02-01T01:01:15.857Z,43.98
2024-02-01T01:03:42.672Z,44.36
2024-02-01T01:06:09.555Z,43.90
2024-02-01T01:08:37.299Z,44.93
2024-02-01T01:11:05.247Z,44.29
2024-02-01T01:13:32.138Z,44.33
2024-02-01T01:15:58.930Z,43.88
2024-02-01T01:18:25.838Z,46.47
2024-02-01T01:20:52.876Z,45.40
2024-02-01T01:23:19.569Z,47.23
2024-02-01T01:25:46.374Z,48.36
2024-02-01T01:28:13.081Z,47.86
2024-02-01T01:30:39.758Z,47.93
2024-02-01T01:33:06.724Z,46.82
2024-02-01T01:35:33.546Z,47.52
2024-02-01T01:38:00.246Z,46.52
2024-02-01T01:40:27.174Z,43.76
2024-02-01T01:42:53.869Z,45.59
2024-02-01T01:45:20.735Z,46.40
2024-02-01T01:47:47.995Z,46.52
2024-02-01T01:50:14.968Z,44.45
2024-02-01T01:52:46.026Z,44.91
2024-02-01T01:55:13.894Z,43.89
2024-02-01T01:57:41.131Z,44.68
2024-02-01T02:00:09.221Z,44.29
2024-02-01T02:02:36.390Z,44.42
2024-02-01T02:05:03.367Z,45.17
2024-02-01T02:07:30.061Z,44.53
2024-02-01T02:10:02.133Z,44.64
2024-02-01T02:12:29.258Z,44.38
2024-02-01T02:15:00.933Z,46.16
2024-02-01T02:17:28.905Z,44.73
2024-02-01T02:19:55.859Z,45.17
2024-02-01T02:22:26.716Z,45.60
2024-02-01T02:24:53.796Z,44.22
2024-02-01T02:27:21.644Z,46.14
2024-02-01T02:29:48.815Z,46.97
2024-02-01T02:32:15.886Z,45.58
2024-02-01T02:34:42.863Z,46.42
2024-02-01T02:37:10.141Z,46.68
2024-02-01T02:39:38.535Z,45.03
2024-02-01T02:42:05.858Z,46.41
2024-02-01T02:44:32.735Z,46.17
2024-02-01T02:46:59.554Z,46.14
2024-02-01T02:49:26.420Z,46.36
2024-02-01T02:51:53.459Z,46.27
2024-02-01T02:54:20.266Z,48.10
2024-02-01T02:56:47.076Z,48.98
2024-02-01T02:59:13.793Z,47.91
2024-02-01T03:01:41.561Z,48.16
2024-02-01T03:04:09.721Z,48.82
2024-02-01T03:06:36.897Z,47.28
2024-02-01T03:09:04.254Z,47.83
2024-02-01T03:11:31.081Z,46.09
2024-02-01T03:13:57.915Z,48.10
2024-02-01T03:16:24.682Z,47.83
2024-02-01T03:18:52.049Z,47.02
2024-02-01T03:21:20.632Z,47.25
2024-02-01T03:23:49.233Z,47.63
2024-02-01T03:26:16.179Z,46.83
2024-02-01T03:28:44.461Z,46.75
2024-02-01T03:31:13.160Z,46.90
2024-02-01T03:33:46.110Z,45.73
2024-02-01T03:36:13.480Z,45.88
2024-02-01T03:38:44.270Z,45.32
2024-02-01T03:41:12.772Z,44.73
2024-02-01T03:43:40.159Z,44.67
2024-02-01T03:46:06.996Z,46.92
2024-02-01T03:48:34.411Z,47.26
2024-02-01T03:51:01.984Z,48.91
2024-02-01T03:53:29.215Z,46.55
2024-02-01T03:55:55.951Z,46.51
2024-02-01T03:58:22.909Z,46.22
2024-02-01T04:00:51.769Z,46.16
2024-02-01T04:03:18.786Z,47.06
2024-02-01T04:05:45.690Z,46.32
2024-02-01T04:08:17.425Z,46.83
2024-02-01T04:10:46.350Z,48.04
2024-02-01T04:13:12.983Z,46.43
2024-02-01T04:15:39.681Z,47.29
2024-02-01T04:18:09.272Z,46.51
2024-02-01T04:20:36.382Z,47.24
2024-02-01T04:23:03.477Z,47.13
2024-02-01T04:25:30.824Z,47.81
2024-02-01T04:27:57.676Z,45.79
2024-02-01T04:30:25.565Z,48.24
2024-02-01T04:32:52.745Z,48.04
2024-02-01T04:35:19.667Z,48.42
2024-02-01T04:37:46.768Z,45.78
2024-02-01T04:40:13.892Z,47.94
2024-02-01T04:42:41.800Z,46.91
2024-02-01T04:45:10.030Z,48.29
2024-02-01T04:47:37.530Z,45.84
2024-02-01T04:50:06.125Z,46.38
2024-02-01T04:52:34.886Z,47.78
2024-02-01T04:55:04.384Z,47.49
2024-02-01T04:57:31.727Z,48.29
2024-02-01T04:59:58.469Z,46.42
2024-02-01T05:02:25.298Z,47.52
2024-02-01T05:04:51.990Z,48.65
2024-02-01T05:07:18.726Z,49.21
2024-02-01T05:09:45.600Z,47.80
2024-02-01T05:12:12.686Z,47.39
2024-02-01T05:14:39.787Z,47.31
2024-02-01T05:17:06.545Z,48.50
2024-02-01T05:19:33.500Z,48.27
2024-02-01T05:22:00.218Z,48.30
2024-02-01T05:24:27.474Z,46.47
2024-02-01T05:26:54.404Z,49.33
2024-02-01T05:29:22.716Z,48.53
2024-02-01T05:31:54.403Z,48.21
2024-02-01T05:34:22.742Z,49.27
2024-02-01T05:36:52.785Z,49.27
2024-02-01T05:39:26.768Z,49.72
2024-02-01T05:41:55.382Z,48.03
2024-02-01T05:44:22.405Z,49.57
2024-02-01T05:46:50.101Z,50.17
2024-02-01T05:49:20.214Z,48.64
2024-02-01T05:51:49.091Z,48.13
2024-02-01T05:54:16.475Z,49.48
2024-02-01T05:56:46.805Z,47.86
2024-02-01T05:59:14.834Z,49.57
2024-02-01T06:01:42.186Z,49.69
2024-02-01T06:04:10.637Z,49.25
2024-02-01T06:06:48.717Z,48.96
2024-02-01T06:09:17.315Z,48.78
2024-02-01T06:11:45.986Z,47.93
2024-02-01T06:14:16.481Z,46.90
2024-02-01T06:16:45.159Z,48.83
2024-02-01T06:19:12.328Z,50.12
2024-02-01T06:21:39.416Z,47.52
2024-02-01T06:24:06.821Z,46.86
2024-02-01T06:26:33.736Z,48.78
2024-02-01T06:29:09.060Z,47.05
2024-02-01T06:31:42.003Z,48.36
2024-02-01T06:34:10.503Z,47.23
2024-02-01T06:36:52.160Z,46.71
2024-02-01T06:39:38.686Z,48.20
2024-02-01T06:42:15.800Z,48.52
2024-02-01T06:44:48.068Z,47.42
2024-02-01T06:47:25.209Z,47.21
2024-02-01T06:50:02.476Z,46.93
2024-02-01T06:52:41.646Z,47.41
2024-02-01T06:55:12.312Z,46.35
2024-02-01T06:57:48.971Z,49.49
2024-02-01T07:00:35.995Z,49.87
2024-02-01T07:03:04.086Z,49.03
2024-02-01T07:05:58.136Z,47.20
2024-02-01T07:08:55.103Z,48.61
2024-02-01T07:11:29.580Z,47.19
2024-02-01T07:13:56.318Z,47.26
2024-02-01T07:16:26.258Z,46.82
2024-02-01T07:19:14.150Z,47.30
2024-02-01T07:22:00.263Z,48.43
2024-02-01T07:24:46.519Z,48.58
2024-02-01T07:27:32.533Z,48.44
2024-02-01T07:30:19.065Z,50.06
2024-02-01T07:33:04.482Z,48.62
2024-02-01T07:35:49.846Z,46.30
2024-02-01T07:38:35.218Z,46.44
2024-02-01T07:41:20.565Z,46.54
2024-02-01T07:44:05.559Z,47.97
2024-02-01T07:46:50.943Z,47.40
2024-02-01T07:49:36.495Z,47.41
2024-02-01T07:52:22.342Z,49.58
2024-02-01T07:55:07.565Z,47.99
2024-02-01T07:57:52.647Z,48.69
2024-02-01T08:00:29.827Z,47.77
2024-02-01T08:03:15.821Z,46.10
2024-02-01T08:06:01.577Z,47.37
2024-02-01T08:08:28.754Z,46.17
2024-02-01T08:10:59.759Z,46.40
2024-02-01T08:13:27.057Z,45.40
2024-02-01T08:15:55.829Z,45.92
2024-02-01T08:18:24.527Z,44.67
2024-02-01T08:20:51.517Z,45.89
2024-02-01T08:23:21.113Z,43.88
2024-02-01T08:25:48.209Z,43.96
2024-02-01T08:28:16.304Z,46.14
2024-02-01T08:30:53.916Z,44.10
2024-02-01T08:33:20.784Z,44.94
2024-02-01T08:35:48.978Z,44.99
2024-02-01T08:38:19.367Z,46.11
2024-02-01T08:40:47.608Z,47.53
2024-02-01T08:43:14.894Z,46.56
2024-02-01T08:45:46.209Z,45.19
2024-02-01T08:48:13.814Z,46.73
2024-02-01T08:50:50.079Z,47.18
2024-02-01T08:53:18.808Z,45.40
2024-02-01T08:55:46.758Z,44.97
2024-02-01T08:58:14.331Z,45.40
2024-02-01T09:00:46.536Z,46.13
2024-02-01T09:03:17.745Z,47.18
2024-02-01T09:05:52.621Z,43.93
2024-02-01T09:08:41.946Z,44.59
2024-02-01T09:11:19.050Z,43.12
2024-02-01T09:13:48.059Z,45.21
2024-02-01T09:16:20.746Z,46.13
2024-02-01T09:18:48.256Z,45.43
2024-02-01T09:21:15.700Z,44.71
2024-02-01T09:23:42.666Z,44.88
2024-02-01T09:26:10.560Z,44.77
2024-02-01T09:28:42.920Z,45.91
2024-02-01T09:31:23.879Z,46.53
2024-02-01T09:33:51.980Z,46.95
2024-02-01T09:36:20.121Z,46.05
2024-02-01T09:38:47.267Z,47.04
2024-02-01T09:41:20.543Z,45.65
2024-02-01T09:43:52.507Z,45.80
2024-02-01T09:46:20.569Z,44.45
2024-02-01T09:48:48.119Z,45.50
2024-02-01T09:51:21.435Z,45.33
2024-02-01T09:53:49.516Z,44.94
2024-02-01T09:56:17.929Z,46.60
2024-02-01T09:58:45.538Z,45.51
2024-02-01T10:01:14.129Z,44.95
2024-02-01T10:03:45.889Z,43.23
2024-02-01T10:06:13.898Z,44.46
2024-02-01T10:08:41.280Z,45.09
2024-02-01T10:11:08.298Z,44.58
2024-02-01T10:13:37.374Z,44.26
2024-02-01T10:16:14.054Z,45.18
2024-02-01T10:18:43.164Z,45.84
2024-02-01T10:21:35.612Z,45.10
2024-02-01T10:24:08.723Z,46.14
2024-02-01T10:26:36.172Z,44.56
2024-02-01T10:29:02.898Z,46.33
2024-02-01T10:31:32.573Z,45.23
2024-02-01T10:34:11.941Z,45.50
2024-02-01T10:36:44.445Z,45.98
2024-02-01T10:39:22.579Z,46.40
2024-02-01T10:41:57.333Z,47.57
2024-02-01T10:44:35.139Z,46.09
2024-02-01T10:47:06.525Z,47.81
2024-02-01T10:49:39.065Z,45.79
2024-02-01T10:52:08.157Z,45.71
2024-02-01T10:54:36.638Z,46.45
2024-02-01T10:57:07.988Z,47.75
2024-02-01T10:59:37.358Z,48.66
2024-02-01T11:02:04.421Z,49.77
2024-02-01T11:04:39.979Z,50.64
2024-02-01T11:07:07.701Z,48.51
2024-02-01T11:09:37.284Z,50.04
2024-02-01T11:12:15.472Z,47.36
2024-02-01T11:14:42.328Z,48.84
2024-02-01T11:17:19.898Z,48.54
2024-02-01T11:19:50.486Z,47.69
2024-02-01T11:22:19.538Z,47.77
2024-02-01T11:24:46.673Z,47.44
2024-02-01T11:27:22.031Z,47.96
2024-02-01T11:29:53.972Z,46.68
2024-02-01T11:32:25.306Z,48.60
2024-02-01T11:34:54.819Z,47.40
2024-02-01T11:37:25.810Z,48.43
2024-02-01T11:39:55.050Z,47.21
2024-02-01T11:42:31.907Z,48.44
2024-02-01T11:45:03.206Z,46.45
2024-02-01T11:47:33.454Z,46.04
2024-02-01T11:50:00.741Z,46.63
2024-02-01T11:52:45.653Z,46.15
2024-02-01T11:55:13.268Z,46.74
2024-02-01T11:57:55.016Z,47.05
2024-02-01T12:00:44.137Z,45.53
2024-02-01T12:03:17.293Z,46.18
2024-02-01T12:05:47.581Z,44.43
2024-02-01T12:08:15.042Z,46.62
2024-02-01T12:10:47.451Z,47.68
2024-02-01T12:13:17.088Z,47.41
2024-02-01T12:15:53.507Z,46.73
2024-02-01T12:18:21.281Z,47.38
2024-02-01T12:20:51.957Z,47.97
2024-02-01T12:23:18.809Z,47.80
2024-02-01T12:25:47.327Z,47.24
2024-02-01T12:28:14.524Z,48.00
2024-02-01T12:30:46.543Z,48.30
2024-02-01T12:33:15.831Z,45.33
2024-02-01T12:35:43.425Z,45.48
2024-02-01T12:38:11.314Z,43.99
2024-02-01T12:40:38.285Z,46.64
2024-02-01T12:43:06.311Z,45.01
2024-02-01T12:45:33.484Z,44.25
2024-02-01T12:48:00.409Z,45.18
2024-02-01T12:50:27.595Z,46.10
2024-02-01T12:52:54.454Z,46.37
2024-02-01T12:55:21.817Z,45.83
2024-02-01T12:57:48.776Z,46.56
2024-02-01T13:00:16.877Z,46.61
2024-02-01T13:02:46.359Z,46.50
2024-02-01T13:05:13.881Z,45.80
2024-02-01T13:07:40.724Z,47.16
2024-02-01T13:10:14.694Z,47.23
2024-02-01T13:12:56.597Z,46.42
2024-02-01T13:15:28.508Z,47.29
2024-02-01T13:17:56.101Z,46.25
2024-02-01T13:20:23.519Z,46.58
2024-02-01T13:22:52.162Z,45.14
2024-02-01T13:25:22.255Z,46.79
2024-02-01T13:27:51.778Z,47.44
2024-02-01T13:30:20.565Z,47.57
2024-02-01T13:32:49.903Z,47.85
2024-02-01T13:35:17.183Z,48.18
2024-02-01T13:37:47.928Z,46.71
2024-02-01T13:40:18.778Z,47.27
2024-02-01T13:42:46.662Z,48.42
2024-02-01T13:45:14.451Z,48.93
2024-02-01T13:47:52.946Z,48.02
2024-02-01T13:50:22.611Z,48.38
2024-02-01T13:52:50.572Z,49.65
2024-02-01T13:55:17.378Z,49.34
2024-02-01T13:57:44.132Z,48.50
2024-02-01T14:00:17.455Z,47.69
2024-02-01T14:02:45.940Z,48.52
2024-02-01T14:05:14.004Z,49.36
2024-02-01T14:07:42.199Z,48.96
2024-02-01T14:10:10.640Z,48.63
2024-02-01T14:12:41.849Z,49.34
2024-02-01T14:15:09.691Z,48.73
2024-02-01T14:17:36.738Z,49.02
2024-02-01T14:20:04.904Z,49.73
2024-02-01T14:22:31.852Z,48.01
2024-02-01T14:24:58.553Z,48.65
2024-02-01T14:27:26.129Z,47.68
2024-02-01T14:29:52.971Z,48.14
2024-02-01T14:32:19.774Z,47.71
2024-02-01T14:34:47.750Z,48.84
2024-02-01T14:37:14.919Z,48.79
2024-02-01T14:39:43.205Z,46.15
2024-02-01T14:42:10.555Z,49.70
2024-02-01T14:44:38.209Z,50.12
2024-02-01T14:47:08.658Z,47.95
2024-02-01T14:49:36.510Z,48.33
2024-02-01T14:52:03.642Z,47.92
2024-02-01T14:54:30.368Z,47.91
2024-02-01T14:56:57.214Z,48.83
2024-02-01T14:59:24.380Z,48.34
2024-02-01T15:01:51.153Z,47.25
2024-02-01T15:04:18.013Z,48.75
2024-02-01T15:06:44.992Z,46.71
2024-02-01T15:09:12.484Z,48.48
2024-02-01T15:11:39.511Z,47.79
2024-02-01T15:14:06.406Z,48.58
2024-02-01T15:16:34.251Z,48.12
2024-02-01T15:19:02.628Z,48.68
2024-02-01T15:21:33.204Z,47.82
2024-02-01T15:24:01.010Z,47.92
2024-02-01T15:26:28.520Z,47.89
2024-02-01T15:28:58.072Z,49.56
2024-02-01T15:31:24.811Z,47.80
2024-02-01T15:33:55.021Z,50.14
2024-02-01T15:36:22.638Z,52.23
2024-02-01T15:38:52.853Z,49.24
2024-02-01T15:41:20.918Z,50.09
2024-02-01T15:43:47.708Z,49.87
2024-02-01T15:46:14.542Z,50.10
2024-02-01T15:48:44.049Z,51.92
2024-02-01T15:51:11.065Z,51.25
2024-02-01T15:53:37.833Z,51.52
2024-02-01T15:56:04.882Z,51.32
2024-02-01T15:58:31.719Z,50.44
2024-02-01T16:00:58.459Z,50.10
2024-02-01T16:03:26.505Z,49.77
2024-02-01T16:05:57.095Z,52.37
2024-02-01T16:08:24.018Z,51.04
2024-02-01T16:11:01.806Z,50.73
2024-02-01T16:13:37.882Z,51.54
2024-02-01T16:16:07.479Z,52.66
2024-02-01T16:18:40.877Z,50.42
2024-02-01T16:21:08.969Z,49.90
2024-02-01T16:23:37.902Z,50.55
2024-02-01T16:26:06.189Z,50.82
2024-02-01T16:28:41.129Z,50.74
2024-02-01T16:31:10.628Z,51.21
2024-02-01T16:33:55.992Z,51.54
2024-02-01T16:36:39.009Z,51.75
2024-02-01T16:39:11.048Z,51.40
2024-02-01T16:41:37.996Z,50.79
2024-02-01T16:44:08.299Z,51.12
2024-02-01T16:46:51.425Z,50.63
2024-02-01T16:49:24.545Z,51.04
2024-02-01T16:51:52.439Z,51.91
2024-02-01T16:54:19.617Z,52.38
2024-02-01T16:56:46.868Z,51.40
2024-02-01T16:59:21.134Z,51.78
2024-02-01T17:01:54.178Z,52.30
2024-02-01T17:04:26.248Z,51.73
2024-02-01T17:06:54.210Z,52.04
2024-02-01T17:09:24.996Z,51.78
2024-02-01T17:11:55.848Z,52.28
2024-02-01T17:14:25.810Z,51.69
2024-02-01T17:16:52.533Z,52.83
2024-02-01T17:19:19.997Z,53.22
2024-02-01T17:21:49.364Z,52.59
2024-02-01T17:24:24.413Z,51.58
2024-02-01T17:26:53.120Z,53.49
2024-02-01T17:29:25.911Z,52.87
2024-02-01T17:31:53.367Z,53.10
2024-02-01T17:34:47.002Z,54.11
2024-02-01T17:37:45.013Z,52.82
2024-02-01T17:40:20.786Z,52.96
2024-02-01T17:42:50.015Z,54.13
2024-02-01T17:45:18.350Z,53.65
2024-02-01T17:48:02.049Z,53.67
2024-02-01T17:50:41.828Z,54.70
2024-02-01T17:53:10.022Z,54.34
2024-02-01T17:55:54.162Z,53.96
2024-02-01T17:58:42.716Z,53.42
2024-02-01T18:01:20.997Z,53.67
2024-02-01T18:03:57.995Z,53.46
2024-02-01T18:06:35.081Z,53.34
2024-02-01T18:09:02.501Z,52.51
2024-02-01T18:11:30.501Z,53.28
2024-02-01T18:13:58.551Z,53.74
2024-02-01T18:16:29.083Z,53.35
2024-02-01T18:19:06.508Z,51.99
2024-02-01T18:21:38.581Z,52.12
2024-02-01T18:24:06.752Z,53.91
2024-02-01T18:26:34.622Z,52.05
2024-02-01T18:29:01.613Z,51.93
2024-02-01T18:31:28.733Z,51.33
2024-02-01T18:33:56.418Z,52.49
2024-02-01T18:36:32.491Z,52.87
2024-02-01T18:39:06.949Z,52.30
2024-02-01T18:41:35.056Z,51.66
2024-02-01T18:44:14.298Z,52.91
2024-02-01T18:46:52.683Z,51.97
2024-02-01T18:49:27.748Z,51.97
2024-02-01T18:51:58.032Z,52.98
2024-02-01T18:54:34.035Z,53.12
2024-02-01T18:57:01.862Z,51.88
2024-02-01T18:59:31.945Z,52.11
2024-02-01T19:02:03.989Z,52.19
2024-02-01T19:04:32.471Z,51.47
2024-02-01T19:07:00.028Z,53.95
2024-02-01T19:09:45.914Z,52.39
2024-02-01T19:12:44.640Z,53.31
2024-02-01T19:15:46.717Z,53.70
2024-02-01T19:18:16.427Z,50.79
2024-02-01T19:20:47.542Z,53.05
2024-02-01T19:23:19.783Z,50.92
2024-02-01T19:25:50.489Z,52.97
2024-02-01T19:28:47.645Z,51.91
2024-02-01T19:31:18.136Z,51.99
2024-02-01T19:33:48.308Z,50.69
2024-02-01T19:36:30.301Z,51.07
2024-02-01T19:39:02.001Z,52.05
2024-02-01T19:41:28.793Z,51.13
2024-02-01T19:43:55.715Z,51.14
2024-02-01T19:46:22.958Z,50.89
2024-02-01T19:48:50.171Z,50.93
2024-02-01T19:51:17.139Z,52.48
2024-02-01T19:53:44.232Z,50.66
2024-02-01T19:56:11.393Z,49.57
2024-02-01T19:58:38.276Z,50.38
2024-02-01T20:01:05.344Z,49.93
2024-02-01T20:03:32.257Z,49.52
2024-02-01T20:05:59.282Z,49.06
2024-02-01T20:08:26.066Z,48.88
2024-02-01T20:10:53.166Z,48.75
2024-02-01T20:13:20.068Z,48.68
2024-02-01T20:15:46.955Z,49.52
2024-02-01T20:18:22.404Z,48.76
2024-02-01T20:20:50.603Z,48.73
2024-02-01T20:23:18.862Z,48.45
2024-02-01T20:25:45.962Z,48.93
2024-02-01T20:28:47.957Z,49.08
2024-02-01T20:31:27.888Z,49.16
2024-02-01T20:33:56.686Z,48.39
2024-02-01T20:36:37.946Z,48.77
2024-02-01T20:39:04.818Z,48.44
2024-02-01T20:41:33.882Z,49.26
2024-02-01T20:44:01.076Z,48.41
2024-02-01T20:46:27.845Z,48.26
2024-02-01T20:48:54.788Z,48.31
2024-02-01T20:51:58.110Z,47.68
2024-02-01T20:54:33.992Z,47.90
2024-02-01T20:57:22.490Z,47.92
2024-02-01T20:59:53.135Z,47.74
2024-02-01T21:02:54.754Z,48.01
2024-02-01T21:05:27.605Z,48.49
2024-02-01T21:07:55.090Z,48.03
2024-02-01T21:10:24.469Z,47.60
2024-02-01T21:13:11.647Z,47.74
2024-02-01T21:15:40.936Z,47.16
2024-02-01T21:18:18.067Z,47.25
2024-02-01T21:20:46.844Z,47.39
2024-02-01T21:23:48.217Z,46.89
2024-02-01T21:26:15.594Z,48.55
2024-02-01T21:28:43.542Z,47.69
2024-02-01T21:31:25.615Z,46.62
2024-02-01T21:33:56.533Z,47.22
2024-02-01T21:36:24.046Z,46.96
2024-02-01T21:38:51.723Z,47.22
2024-02-01T21:41:20.443Z,47.42
2024-02-01T21:43:47.302Z,47.14
2024-02-01T21:46:17.579Z,46.45
2024-02-01T21:48:44.628Z,46.87
2024-02-01T21:51:11.499Z,47.69
2024-02-01T21:53:38.550Z,48.59
2024-02-01T21:56:05.817Z,48.23
2024-02-01T21:58:32.620Z,47.83
2024-02-01T22:01:01.468Z,48.32
2024-02-01T22:03:28.944Z,48.25
2024-02-01T22:05:55.941Z,47.45
2024-02-01T22:08:22.746Z,47.46
2024-02-01T22:10:49.574Z,48.17
2024-02-01T22:13:16.394Z,48.27
2024-02-01T22:15:43.380Z,48.17
2024-02-01T22:18:10.256Z,47.34
2024-02-01T22:20:37.236Z,47.96
2024-02-01T22:23:04.815Z,48.38
2024-02-01T22:25:31.575Z,48.26
2024-02-01T22:27:58.376Z,47.61
2024-02-01T22:30:25.336Z,49.83
2024-02-01T22:32:52.460Z,48.62
2024-02-01T22:35:19.447Z,48.75
2024-02-01T22:37:46.528Z,48.26
2024-02-01T22:40:13.537Z,48.07
2024-02-01T22:42:40.396Z,49.71
2024-02-01T22:45:09.398Z,48.60
2024-02-01T22:47:36.880Z,48.39
2024-02-01T22:50:04.220Z,48.30
2024-02-01T22:52:31.071Z,48.39
2024-02-01T22:54:57.932Z,48.00
2024-02-01T22:57:24.680Z,47.33
2024-02-01T22:59:54.724Z,47.73
2024-02-01T23:02:21.576Z,46.74
2024-02-01T23:04:48.333Z,47.63
2024-02-01T23:07:15.288Z,46.88
2024-02-01T23:09:42.317Z,48.58
2024-02-01T23:12:09.491Z,47.58
2024-02-01T23:14:36.255Z,48.58
2024-02-01T23:17:03.044Z,48.29
2024-02-01T23:19:29.882Z,47.77
2024-02-01T23:21:57.298Z,49.80
2024-02-01T23:24:24.560Z,49.16
2024-02-01T23:26:51.430Z,50.26
2024-02-01T23:29:18.285Z,48.78
2024-02-01T23:31:45.098Z,50.52
2024-02-01T23:34:12.062Z,48.58
2024-02-01T23:36:39.082Z,50.44
2024-02-01T23:39:05.906Z,49.96
2024-02-01T23:41:32.771Z,50.42
2024-02-01T23:43:59.591Z,50.98
2024-02-01T23:46:26.288Z,49.31
2024-02-01T23:48:53.246Z,49.39
2024-02-01T23:51:20.559Z,50.09
2024-02-01T23:53:47.417Z,50.01
2024-02-01T23:56:14.198Z,52.01
2024-02-01T23:58:41.217Z,50.99
